Time;durP1;ratioP1;P1;durP2;ratioP2;P2;SDS_P1;SDS_P2;PMS_P1;PMS_P2;Temp;Humidity;BMP_temperature;BMP_pressure;BME280_temperature;BME280_humidity;BME280_pressure;Samples;Min_cycle;Max_cycle;Signal;HPM_P1;HPM_P2
2023/08/18 00:02:20;;;;;;;3.90;3.60;;;;;;;;;;5140798;27;20335;-66
2023/08/18 00:04:48;;;;;;;3.88;3.58;;;;;;;;;;5141036;27;20209;-66
2023/08/18 00:07:16;;;;;;;4.40;4.00;;;;;;;;;;5140720;27;20689;-66
2023/08/18 00:09:44;;;;;;;4.25;3.85;;;;;;;;;;5140974;27;20245;-66
2023/08/18 00:12:13;;;;;;;4.28;3.97;;;;;;;;;;5140301;27;20512;-65
2023/08/18 00:14:41;;;;;;;4.15;3.75;;;;;;;;;;5140581;27;20217;-65
2023/08/18 00:17:09;;;;;;;4.35;3.95;;;;;;;;;;5140841;27;20497;-66
2023/08/18 00:19:37;;;;;;;4.00;3.70;;;;;;;;;;5140795;27;20206;-66
2023/08/18 00:22:05;;;;;;;4.32;3.92;;;;;;;;;;5140371;27;20203;-66
2023/08/18 00:24:33;;;;;;;4.10;3.80;;;;;;;;;;5140484;27;20240;-66
2023/08/18 00:27:01;;;;;;;3.90;3.60;;;;;;;;;;5140618;27;20199;-66
2023/08/18 00:29:30;;;;;;;4.30;4.00;;;;;;;;;;5140400;27;20205;-66
2023/08/18 00:31:58;;;;;;;3.92;3.60;;;;;;;;;;5140077;27;20293;-66
2023/08/18 00:34:26;;;;;;;4.10;3.70;;;;;;;;;;5140280;27;20203;-66
2023/08/18 00:36:53;;;;;;;3.97;3.67;;;;;;;;;;5150388;27;20289;-65
2023/08/18 00:39:21;;;;;;;4.15;3.80;;;;;;;;;;5160680;27;20297;-66
2023/08/18 00:41:49;;;;;;;4.32;3.90;;;;;;;;;;5161390;27;20307;-66
2023/08/18 00:44:16;;;;;;;4.75;4.35;;;;;;;;;;5161024;27;20260;-66
2023/08/18 00:46:46;;;;;;;4.20;3.90;;;;;;;;;;5160607;27;20296;-66
2023/08/18 00:49:15;;;;;;;4.07;3.78;;;;;;;;;;5160286;27;20202;-65
2023/08/18 00:51:43;;;;;;;3.60;3.40;;;;;;;;;;5160832;27;20202;-66
2023/08/18 00:54:12;;;;;;;3.53;3.22;;;;;;;;;;5160316;27;20206;-66
2023/08/18 00:56:40;;;;;;;4.03;3.63;;;;;;;;;;5160387;27;20225;-65
2023/08/18 00:59:08;;;;;;;3.53;3.33;;;;;;;;;;5160383;27;20202;-66
2023/08/18 01:01:35;;;;;;;3.65;3.40;;;;;;;;;;5160147;27;20233;-66
2023/08/18 01:04:05;;;;;;;3.45;3.17;;;;;;;;;;5160562;27;20301;-66
2023/08/18 01:06:33;;;;;;;3.83;3.53;;;;;;;;;;5160827;27;20491;-65
2023/08/18 01:09:00;;;;;;;3.85;3.55;;;;;;;;;;5160443;27;20527;-65
2023/08/18 01:11:33;;;;;;;4.57;3.65;;;;;;;;;;5160393;27;20503;-66
2023/08/18 01:14:07;;;;;;;4.07;3.78;;;;;;;;;;5160100;27;20208;-66
2023/08/18 01:16:36;;;;;;;3.95;3.65;;;;;;;;;;5159841;27;20221;-65
2023/08/18 01:19:05;;;;;;;3.88;3.58;;;;;;;;;;5160315;27;20244;-66
2023/08/18 01:21:32;;;;;;;3.63;3.33;;;;;;;;;;5159722;27;20221;-66
2023/08/18 01:24:04;;;;;;;4.22;3.80;;;;;;;;;;5159939;27;20232;-66
2023/08/18 01:26:31;;;;;;;4.05;3.60;;;;;;;;;;5160560;27;20197;-65
2023/08/18 01:28:59;;;;;;;3.55;3.25;;;;;;;;;;5160090;27;20596;-66
2023/08/18 01:31:30;;;;;;;3.63;3.35;;;;;;;;;;5159492;27;20207;-66
2023/08/18 01:34:01;;;;;;;3.42;3.20;;;;;;;;;;5159826;27;20574;-65
2023/08/18 01:36:30;;;;;;;3.50;3.20;;;;;;;;;;5158214;27;20521;-65
2023/08/18 01:38:59;;;;;;;3.95;3.65;;;;;;;;;;5159108;27;20600;-65
2023/08/18 01:41:29;;;;;;;3.83;3.53;;;;;;;;;;5159386;27;20210;-65
2023/08/18 01:43:57;;;;;;;3.78;3.47;;;;;;;;;;5159736;27;20202;-66
2023/08/18 01:46:25;;;;;;;3.72;3.42;;;;;;;;;;5159532;27;20208;-66
2023/08/18 01:48:53;;;;;;;3.63;3.40;;;;;;;;;;5159703;27;20523;-65
2023/08/18 01:51:20;;;;;;;3.78;3.53;;;;;;;;;;5159465;27;20202;-66
2023/08/18 01:53:48;;;;;;;4.10;3.70;;;;;;;;;;5159718;27;20601;-66
2023/08/18 01:56:15;;;;;;;4.00;3.60;;;;;;;;;;5159268;27;20201;-66
2023/08/18 01:58:45;;;;;;;3.85;3.55;;;;;;;;;;5159509;27;20212;-66
2023/08/18 02:01:12;;;;;;;3.78;3.50;;;;;;;;;;5159629;27;20201;-66
2023/08/18 02:03:40;;;;;;;3.80;3.38;;;;;;;;;;5159782;27;20194;-65
2023/08/18 02:06:08;;;;;;;4.00;3.70;;;;;;;;;;5159139;27;20209;-66
2023/08/18 02:08:35;;;;;;;3.90;3.65;;;;;;;;;;5159355;27;20208;-66
2023/08/18 02:11:03;;;;;;;3.80;3.47;;;;;;;;;;5159202;27;20209;-65
2023/08/18 02:13:31;;;;;;;3.72;3.45;;;;;;;;;;5159820;27;20262;-65
2023/08/18 02:16:00;;;;;;;3.60;3.40;;;;;;;;;;5159436;27;20201;-65
2023/08/18 02:18:27;;;;;;;4.00;3.80;;;;;;;;;;5158915;27;20446;-65
2023/08/18 02:20:58;;;;;;;4.00;3.70;;;;;;;;;;5159334;27;20202;-65
2023/08/18 02:23:26;;;;;;;3.97;3.58;;;;;;;;;;5159306;27;20266;-65
2023/08/18 02:26:00;;;;;;;3.60;3.38;;;;;;;;;;5159071;27;20214;-65
2023/08/18 02:28:27;;;;;;;3.80;3.50;;;;;;;;;;5158962;27;20651;-65
2023/08/18 02:31:02;;;;;;;3.60;3.40;;;;;;;;;;5159161;27;20229;-65
2023/08/18 02:33:29;;;;;;;3.70;3.50;;;;;;;;;;5158828;27;20201;-65
2023/08/18 02:35:58;;;;;;;3.67;3.45;;;;;;;;;;5158792;27;20269;-66
2023/08/18 02:38:26;;;;;;;3.58;3.28;;;;;;;;;;5159438;27;20221;-65
2023/08/18 02:40:54;;;;;;;4.03;3.63;;;;;;;;;;5159437;27;20237;-66
2023/08/18 02:43:21;;;;;;;3.80;3.60;;;;;;;;;;5158998;27;20201;-65
2023/08/18 02:45:49;;;;;;;3.85;3.55;;;;;;;;;;5159250;27;20332;-66
2023/08/18 02:48:18;;;;;;;3.70;3.40;;;;;;;;;;5162082;27;20225;-65
2023/08/18 02:50:46;;;;;;;3.45;3.25;;;;;;;;;;5163203;27;20534;-65
2023/08/18 02:53:14;;;;;;;3.72;3.42;;;;;;;;;;5163307;27;20201;-66
2023/08/18 02:55:42;;;;;;;3.67;3.47;;;;;;;;;;5162395;27;20205;-66
2023/08/18 02:58:10;;;;;;;3.70;3.50;;;;;;;;;;5162265;27;20286;-66
2023/08/18 03:00:37;;;;;;;3.72;3.42;;;;;;;;;;5163068;27;20261;-65
2023/08/18 03:03:05;;;;;;;3.47;3.28;;;;;;;;;;5162291;27;20229;-65
2023/08/18 03:05:37;;;;;;;3.75;3.50;;;;;;;;;;5162477;27;20251;-66
2023/08/18 03:08:04;;;;;;;3.47;3.17;;;;;;;;;;5162419;27;20281;-66
2023/08/18 03:10:32;;;;;;;3.50;3.30;;;;;;;;;;5162448;27;20244;-66
2023/08/18 03:13:03;;;;;;;3.65;3.35;;;;;;;;;;5162681;27;20597;-66
2023/08/18 03:15:30;;;;;;;3.40;3.10;;;;;;;;;;5162336;27;20201;-66
2023/08/18 03:17:58;;;;;;;3.80;3.50;;;;;;;;;;5162239;27;20236;-66
2023/08/18 03:20:26;;;;;;;3.80;3.60;;;;;;;;;;5162286;27;20304;-66
2023/08/18 03:22:54;;;;;;;3.45;3.25;;;;;;;;;;5162141;27;20229;-65
2023/08/18 03:25:22;;;;;;;3.35;3.05;;;;;;;;;;5162211;27;20202;-65
2023/08/18 03:27:49;;;;;;;3.20;3.00;;;;;;;;;;5162514;27;20198;-65
2023/08/18 03:30:17;;;;;;;3.30;3.05;;;;;;;;;;5162434;27;20209;-66
2023/08/18 03:32:47;;;;;;;3.80;3.50;;;;;;;;;;5162543;27;20198;-65
2023/08/18 03:35:15;;;;;;;5.40;3.35;;;;;;;;;;5162339;27;20237;-65
2023/08/18 03:37:42;;;;;;;3.30;3.10;;;;;;;;;;5161952;27;20237;-66
2023/08/18 03:40:12;;;;;;;3.90;3.08;;;;;;;;;;5161978;27;20219;-66
2023/08/18 03:42:40;;;;;;;3.10;2.90;;;;;;;;;;5162226;27;20209;-66
2023/08/18 03:45:08;;;;;;;3.42;3.13;;;;;;;;;;5161518;27;20213;-66
2023/08/18 03:47:35;;;;;;;3.13;2.92;;;;;;;;;;5161916;27;20201;-65
2023/08/18 03:50:04;;;;;;;3.20;2.90;;;;;;;;;;5162386;27;20208;-65
2023/08/18 03:52:32;;;;;;;3.40;3.20;;;;;;;;;;5161445;27;20202;-66
2023/08/18 03:55:00;;;;;;;3.13;2.92;;;;;;;;;;5148028;27;20524;-66
2023/08/18 03:57:29;;;;;;;3.33;3.13;;;;;;;;;;5140515;27;20271;-65
2023/08/18 03:59:57;;;;;;;3.30;3.00;;;;;;;;;;5140326;27;20202;-66
2023/08/18 04:02:25;;;;;;;3.03;2.80;;;;;;;;;;5140918;27;20202;-66
2023/08/18 04:04:54;;;;;;;2.75;2.65;;;;;;;;;;5141217;27;20202;-65
2023/08/18 04:07:22;;;;;;;3.40;3.10;;;;;;;;;;5140636;27;20581;-65
2023/08/18 04:09:49;;;;;;;2.92;2.72;;;;;;;;;;5140127;27;20383;-65
2023/08/18 04:12:16;;;;;;;3.10;2.90;;;;;;;;;;5140806;27;20212;-65
2023/08/18 04:14:45;;;;;;;3.10;2.90;;;;;;;;;;5140870;27;20202;-65
2023/08/18 04:17:12;;;;;;;3.00;2.78;;;;;;;;;;5140497;27;20567;-65
2023/08/18 04:19:40;;;;;;;3.00;2.80;;;;;;;;;;5140299;27;20220;-66
2023/08/18 04:22:07;;;;;;;2.75;2.53;;;;;;;;;;5140002;27;20202;-65
2023/08/18 04:24:34;;;;;;;2.78;2.58;;;;;;;;;;5139687;27;20202;-65
2023/08/18 04:27:02;;;;;;;3.17;2.97;;;;;;;;;;5139663;27;20202;-65
2023/08/18 04:29:29;;;;;;;2.78;2.58;;;;;;;;;;5140209;27;20489;-65
2023/08/18 04:31:58;;;;;;;2.80;2.60;;;;;;;;;;5140026;27;20213;-65
2023/08/18 04:34:26;;;;;;;2.75;2.55;;;;;;;;;;5139581;27;20217;-65
2023/08/18 04:36:54;;;;;;;3.20;2.90;;;;;;;;;;5139488;27;20334;-65
2023/08/18 04:39:22;;;;;;;3.20;2.88;;;;;;;;;;5139313;27;20268;-65
2023/08/18 04:41:49;;;;;;;3.08;2.88;;;;;;;;;;5139712;27;20525;-65
2023/08/18 04:44:16;;;;;;;3.08;2.88;;;;;;;;;;5139674;27;20203;-65
2023/08/18 04:46:44;;;;;;;3.28;3.05;;;;;;;;;;5138829;27;20202;-66
2023/08/18 04:49:12;;;;;;;3.00;2.80;;;;;;;;;;5138920;27;20198;-66
2023/08/18 04:51:41;;;;;;;3.55;3.00;;;;;;;;;;5139088;27;20217;-66
2023/08/18 04:54:08;;;;;;;3.08;2.83;;;;;;;;;;5139461;27;20294;-65
2023/08/18 04:56:36;;;;;;;3.22;3.03;;;;;;;;;;5139565;27;20612;-65
2023/08/18 04:59:03;;;;;;;2.85;2.67;;;;;;;;;;5138939;27;20222;-66
2023/08/18 05:01:31;;;;;;;3.00;2.80;;;;;;;;;;5138412;27;20238;-65
2023/08/18 05:03:59;;;;;;;3.17;2.88;;;;;;;;;;5139076;27;20297;-66
2023/08/18 05:06:27;;;;;;;3.58;3.28;;;;;;;;;;5139206;27;20230;-66
2023/08/18 05:08:55;;;;;;;3.30;3.10;;;;;;;;;;5138993;27;20209;-66
2023/08/18 05:11:22;;;;;;;3.00;2.80;;;;;;;;;;5138610;27;20263;-66
2023/08/18 05:13:50;;;;;;;3.10;2.80;;;;;;;;;;5137912;27;20209;-66
2023/08/18 05:16:17;;;;;;;3.03;2.83;;;;;;;;;;5138054;27;20209;-65
2023/08/18 05:18:45;;;;;;;3.30;3.10;;;;;;;;;;5138665;27;20252;-65
2023/08/18 05:21:12;;;;;;;3.17;2.97;;;;;;;;;;5138469;27;20213;-65
2023/08/18 05:23:41;;;;;;;3.28;3.08;;;;;;;;;;5138896;27;20206;-65
2023/08/18 05:26:08;;;;;;;3.22;3.03;;;;;;;;;;5138127;27;20202;-65
2023/08/18 05:28:35;;;;;;;2.90;2.70;;;;;;;;;;5137849;27;20198;-65
2023/08/18 05:31:03;;;;;;;3.40;3.10;;;;;;;;;;5137956;27;20213;-66
2023/08/18 05:33:30;;;;;;;3.17;2.88;;;;;;;;;;5137264;27;20580;-65
2023/08/18 05:35:59;;;;;;;3.00;2.80;;;;;;;;;;5137897;27;20632;-66
2023/08/18 05:38:26;;;;;;;3.17;2.95;;;;;;;;;;5137512;27;20222;-66
2023/08/18 05:41:06;;;;;;;3.53;3.33;;;;;;;;;;5137871;27;20202;-65
2023/08/18 05:43:35;;;;;;;3.60;3.30;;;;;;;;;;5138334;27;20206;-65
2023/08/18 05:46:03;;;;;;;3.53;3.28;;;;;;;;;;5137555;27;20243;-65
2023/08/18 05:48:32;;;;;;;2.97;2.78;;;;;;;;;;5137664;27;20198;-66
2023/08/18 05:50:59;;;;;;;3.45;3.15;;;;;;;;;;5136512;27;20226;-66
2023/08/18 05:53:27;;;;;;;3.40;3.20;;;;;;;;;;5138183;27;20209;-65
2023/08/18 05:55:54;;;;;;;3.65;3.13;;;;;;;;;;5137542;27;20206;-65
2023/08/18 05:58:23;;;;;;;3.33;3.10;;;;;;;;;;5137375;27;20228;-65
2023/08/18 06:00:51;;;;;;;3.45;3.15;;;;;;;;;;5138020;27;20203;-65
2023/08/18 06:03:19;;;;;;;3.20;3.00;;;;;;;;;;5137137;27;20205;-66
2023/08/18 06:05:47;;;;;;;3.13;2.92;;;;;;;;;;5137985;28;20527;-65
2023/08/18 06:08:14;;;;;;;3.35;3.15;;;;;;;;;;5137342;27;20198;-66
2023/08/18 06:10:42;;;;;;;3.42;3.10;;;;;;;;;;5137178;27;20205;-65
2023/08/18 06:13:09;;;;;;;3.40;3.10;;;;;;;;;;5137533;27;20213;-66
2023/08/18 06:15:38;;;;;;;3.35;3.15;;;;;;;;;;5136941;28;20570;-66
2023/08/18 06:18:05;;;;;;;3.05;2.85;;;;;;;;;;5137302;27;20581;-65
2023/08/18 06:20:33;;;;;;;3.08;2.88;;;;;;;;;;5136474;28;20209;-66
2023/08/18 06:23:00;;;;;;;3.30;3.00;;;;;;;;;;5139336;27;20202;-66
2023/08/18 06:25:28;;;;;;;3.60;3.30;;;;;;;;;;5141680;27;20209;-66
2023/08/18 06:27:56;;;;;;;3.47;3.28;;;;;;;;;;5141221;27;20208;-66
2023/08/18 06:30:23;;;;;;;3.25;3.05;;;;;;;;;;5141517;27;20210;-65
2023/08/18 06:32:52;;;;;;;3.35;3.15;;;;;;;;;;5141142;27;20202;-65
2023/08/18 06:35:19;;;;;;;3.50;3.20;;;;;;;;;;5141398;27;20513;-65
2023/08/18 06:37:47;;;;;;;4.45;3.03;;;;;;;;;;5141566;27;20209;-65
2023/08/18 06:40:14;;;;;;;3.35;3.10;;;;;;;;;;5141425;27;20202;-66
2023/08/18 06:42:41;;;;;;;4.00;3.70;;;;;;;;;;5141047;27;20198;-65
2023/08/18 06:45:09;;;;;;;3.72;3.42;;;;;;;;;;5141450;27;20194;-65
2023/08/18 06:47:37;;;;;;;3.50;3.30;;;;;;;;;;5139665;27;20204;-65
2023/08/18 06:50:06;;;;;;;3.40;3.20;;;;;;;;;;5140527;27;20194;-65
2023/08/18 06:52:34;;;;;;;3.65;3.35;;;;;;;;;;5140830;27;20202;-66
2023/08/18 06:55:03;;;;;;;4.03;3.20;;;;;;;;;;5140020;27;20202;-66
2023/08/18 06:57:30;;;;;;;3.60;3.30;;;;;;;;;;5140802;27;20209;-66
2023/08/18 06:59:58;;;;;;;3.80;3.50;;;;;;;;;;5140140;27;20615;-66
2023/08/18 07:02:25;;;;;;;4.05;3.53;;;;;;;;;;5140150;27;20222;-66
2023/08/18 07:04:53;;;;;;;3.42;3.13;;;;;;;;;;5140519;27;20208;-66
2023/08/18 07:07:22;;;;;;;3.42;3.22;;;;;;;;;;5140726;27;20217;-65
2023/08/18 07:09:50;;;;;;;3.40;3.20;;;;;;;;;;5140967;27;20210;-65
2023/08/18 07:12:17;;;;;;;4.30;3.90;;;;;;;;;;5140770;27;20194;-66
2023/08/18 07:14:45;;;;;;;3.70;3.50;;;;;;;;;;5139811;27;20234;-66
2023/08/18 07:17:12;;;;;;;4.40;4.00;;;;;;;;;;5139838;27;20608;-66
2023/08/18 07:19:39;;;;;;;3.78;3.50;;;;;;;;;;5139820;27;20617;-66
2023/08/18 07:22:07;;;;;;;3.60;3.40;;;;;;;;;;5139941;27;20200;-65
2023/08/18 07:24:35;;;;;;;3.85;3.55;;;;;;;;;;5138909;27;20256;-65
2023/08/18 07:27:04;;;;;;;3.63;3.42;;;;;;;;;;5139859;27;20207;-65
2023/08/18 07:29:33;;;;;;;3.55;3.25;;;;;;;;;;5140146;27;20689;-66
2023/08/18 07:32:01;;;;;;;3.38;3.17;;;;;;;;;;5138901;27;20489;-66
2023/08/18 07:34:28;;;;;;;3.97;3.55;;;;;;;;;;5138028;27;20209;-66
2023/08/18 07:36:55;;;;;;;3.70;3.40;;;;;;;;;;5138827;27;20237;-66
2023/08/18 07:39:24;;;;;;;3.72;3.40;;;;;;;;;;5139448;27;20215;-65
2023/08/18 07:41:53;;;;;;;3.95;3.65;;;;;;;;;;5139205;27;20202;-65
2023/08/18 07:44:20;;;;;;;3.38;3.17;;;;;;;;;;5139295;27;20198;-65
2023/08/18 07:46:48;;;;;;;3.90;3.60;;;;;;;;;;5138623;27;20209;-65
2023/08/18 07:49:15;;;;;;;3.88;3.58;;;;;;;;;;5138854;27;20597;-66
2023/08/18 07:51:43;;;;;;;3.85;3.55;;;;;;;;;;5138420;27;20198;-65
2023/08/18 07:54:10;;;;;;;3.80;3.60;;;;;;;;;;5138879;27;20213;-65
2023/08/18 07:56:38;;;;;;;3.55;3.35;;;;;;;;;;5138308;27;20202;-65
2023/08/18 07:59:08;;;;;;;3.80;3.50;;;;;;;;;;5138535;27;20553;-65
2023/08/18 08:01:35;;;;;;;3.70;3.50;;;;;;;;;;5138696;27;20252;-65
2023/08/18 08:04:03;;;;;;;3.60;3.40;;;;;;;;;;5138539;27;20740;-65
2023/08/18 08:06:31;;;;;;;3.63;3.42;;;;;;;;;;5138918;27;20233;-65
2023/08/18 08:08:59;;;;;;;3.85;3.55;;;;;;;;;;5138774;27;20202;-65
2023/08/18 08:11:26;;;;;;;3.97;3.67;;;;;;;;;;5138972;27;20263;-65
2023/08/18 08:13:54;;;;;;;3.67;3.40;;;;;;;;;;5138265;27;20296;-65
2023/08/18 08:16:22;;;;;;;4.03;3.72;;;;;;;;;;5137783;27;20198;-65
2023/08/18 08:18:50;;;;;;;4.35;3.97;;;;;;;;;;5137606;27;20245;-66
2023/08/18 08:21:17;;;;;;;4.20;3.90;;;;;;;;;;5138197;27;20202;-65
2023/08/18 08:23:44;;;;;;;4.20;3.90;;;;;;;;;;5138059;27;20198;-65
2023/08/18 08:26:12;;;;;;;3.97;3.67;;;;;;;;;;5137801;27;20210;-65
2023/08/18 08:28:39;;;;;;;3.90;3.70;;;;;;;;;;5138184;27;20593;-66
2023/08/18 08:31:06;;;;;;;4.20;3.90;;;;;;;;;;5137653;27;20298;-66
2023/08/18 08:33:36;;;;;;;3.72;3.53;;;;;;;;;;5137688;27;20617;-66
2023/08/18 08:36:03;;;;;;;4.00;3.70;;;;;;;;;;5137445;27;20292;-65
2023/08/18 08:38:31;;;;;;;4.60;4.30;;;;;;;;;;5137679;27;20194;-66
2023/08/18 08:40:59;;;;;;;4.60;4.30;;;;;;;;;;5137907;27;20570;-66
2023/08/18 08:43:27;;;;;;;4.68;4.28;;;;;;;;;;5138099;27;20259;-65
2023/08/18 08:45:55;;;;;;;4.68;4.28;;;;;;;;;;5136771;27;20212;-65
2023/08/18 08:48:24;;;;;;;4.68;4.38;;;;;;;;;;5138402;27;20213;-65
2023/08/18 08:50:56;;;;;;;4.43;4.13;;;;;;;;;;5137489;27;20218;-66
2023/08/18 08:53:29;;;;;;;4.45;4.15;;;;;;;;;;5138144;27;20209;-66
2023/08/18 08:55:58;;;;;;;4.60;4.30;;;;;;;;;;5137330;27;20649;-65
2023/08/18 08:58:29;;;;;;;4.43;4.07;;;;;;;;;;5137226;27;20202;-66
2023/08/18 09:00:57;;;;;;;4.35;4.05;;;;;;;;;;5137136;27;20198;-65
2023/08/18 09:03:24;;;;;;;4.10;3.80;;;;;;;;;;5137080;27;20202;-66
2023/08/18 09:05:53;;;;;;;4.30;3.97;;;;;;;;;;5136851;27;20202;-65
2023/08/18 09:08:20;;;;;;;5.03;4.70;;;;;;;;;;5138046;27;20508;-66
2023/08/18 09:10:48;;;;;;;4.88;4.47;;;;;;;;;;5136918;27;20198;-66
2023/08/18 09:13:15;;;;;;;5.65;5.25;;;;;;;;;;5137602;27;20220;-65
2023/08/18 09:15:44;;;;;;;5.03;4.63;;;;;;;;;;5137059;27;20263;-65
2023/08/18 09:18:13;;;;;;;5.07;4.57;;;;;;;;;;5136675;27;20230;-65
2023/08/18 09:20:40;;;;;;;5.75;5.35;;;;;;;;;;5137274;27;20633;-65
2023/08/18 09:23:09;;;;;;;5.95;5.45;;;;;;;;;;5136900;27;20202;-65
2023/08/18 09:25:36;;;;;;;5.38;4.97;;;;;;;;;;5136956;27;20212;-65
2023/08/18 09:28:04;;;;;;;5.60;5.13;;;;;;;;;;5137053;27;20233;-65
2023/08/18 09:30:32;;;;;;;6.10;5.60;;;;;;;;;;5135811;27;20255;-65
2023/08/18 09:33:01;;;;;;;6.30;5.80;;;;;;;;;;5136858;27;20202;-65
2023/08/18 09:35:33;;;;;;;5.93;5.53;;;;;;;;;;5136178;27;20643;-66
2023/08/18 09:38:01;;;;;;;5.50;5.10;;;;;;;;;;5135712;27;20588;-65
2023/08/18 09:40:30;;;;;;;5.80;5.40;;;;;;;;;;5136599;27;20222;-65
2023/08/18 09:42:58;;;;;;;5.60;5.20;;;;;;;;;;5136214;27;20630;-66
2023/08/18 09:45:27;;;;;;;5.70;5.20;;;;;;;;;;5136974;27;20592;-65
2023/08/18 09:47:55;;;;;;;6.53;6.03;;;;;;;;;;5136384;27;20197;-65
2023/08/18 09:50:25;;;;;;;6.30;5.80;;;;;;;;;;5136012;27;20202;-65
2023/08/18 09:52:54;;;;;;;6.55;5.90;;;;;;;;;;5135538;27;20262;-65
2023/08/18 09:55:25;;;;;;;6.72;6.13;;;;;;;;;;5136234;27;20209;-65
2023/08/18 09:57:58;;;;;;;6.15;5.75;;;;;;;;;;5134458;27;20787;-65
2023/08/18 10:00:26;;;;;;;6.20;5.60;;;;;;;;;;5135601;27;20229;-65
2023/08/18 10:02:55;;;;;;;6.20;5.80;;;;;;;;;;5127010;28;20231;-65
2023/08/18 10:05:23;;;;;;;6.30;5.88;;;;;;;;;;5135367;27;20695;-65
2023/08/18 10:07:51;;;;;;;6.20;5.72;;;;;;;;;;5135599;27;20594;-65
2023/08/18 10:10:19;;;;;;;5.88;5.47;;;;;;;;;;5135890;28;20190;-65
2023/08/18 10:12:46;;;;;;;6.60;6.10;;;;;;;;;;5135772;27;20213;-65
2023/08/18 10:15:16;;;;;;;5.75;5.35;;;;;;;;;;5135353;27;20202;-65
2023/08/18 10:17:43;;;;;;;6.70;6.20;;;;;;;;;;5134785;28;20570;-65
2023/08/18 10:20:12;;;;;;;6.28;5.88;;;;;;;;;;5135607;27;20226;-65
2023/08/18 10:22:39;;;;;;;5.85;5.45;;;;;;;;;;5135103;27;20647;-65
2023/08/18 10:25:08;;;;;;;5.78;5.38;;;;;;;;;;5135190;27;20209;-65
2023/08/18 10:27:40;;;;;;;5.82;5.40;;;;;;;;;;5136039;28;20201;-65
2023/08/18 10:30:25;;;;;;;5.82;5.43;;;;;;;;;;5136375;27;20198;-65
2023/08/18 10:32:55;;;;;;;5.70;5.30;;;;;;;;;;5119401;28;20198;-65
2023/08/18 10:35:23;;;;;;;6.25;5.80;;;;;;;;;;5135095;27;20234;-66
2023/08/18 10:37:51;;;;;;;6.13;5.63;;;;;;;;;;5135202;27;20216;-65
2023/08/18 10:40:25;;;;;;;6.30;5.90;;;;;;;;;;5135555;27;20326;-66
2023/08/18 10:42:53;;;;;;;5.80;5.40;;;;;;;;;;5134836;27;20206;-65
2023/08/18 10:45:24;;;;;;;6.43;5.93;;;;;;;;;;5135462;27;20658;-66
2023/08/18 10:47:53;;;;;;;6.15;5.75;;;;;;;;;;5135462;27;20194;-66
2023/08/18 10:50:22;;;;;;;6.47;5.90;;;;;;;;;;5135929;28;20233;-65
2023/08/18 10:52:53;;;;;;;6.45;5.95;;;;;;;;;;5135543;27;20202;-65
2023/08/18 10:55:20;;;;;;;5.68;5.28;;;;;;;;;;5134520;28;20236;-65
2023/08/18 10:57:48;;;;;;;7.03;6.38;;;;;;;;;;5135752;27;20202;-65
2023/08/18 11:00:17;;;;;;;5.80;5.40;;;;;;;;;;5135099;27;20714;-66
2023/08/18 11:02:45;;;;;;;5.97;5.57;;;;;;;;;;5134025;27;20203;-65
2023/08/18 11:05:12;;;;;;;6.10;5.70;;;;;;;;;;5134900;28;20288;-65
2023/08/18 11:07:41;;;;;;;6.00;5.60;;;;;;;;;;5135356;27;20201;-66
2023/08/18 11:10:16;;;;;;;6.05;5.65;;;;;;;;;;5139476;27;20575;-65
2023/08/18 11:12:44;;;;;;;6.18;5.68;;;;;;;;;;5139444;27;20197;-66
2023/08/18 11:15:12;;;;;;;5.32;5.00;;;;;;;;;;5138933;27;20201;-65
2023/08/18 11:17:39;;;;;;;5.90;5.50;;;;;;;;;;5138742;27;20198;-65
2023/08/18 11:20:08;;;;;;;6.53;6.03;;;;;;;;;;5138638;27;20218;-65
2023/08/18 11:22:37;;;;;;;5.75;5.35;;;;;;;;;;5138549;27;20582;-65
2023/08/18 11:25:06;;;;;;;6.00;5.57;;;;;;;;;;5138713;27;20290;-65
2023/08/18 11:27:34;;;;;;;5.85;5.45;;;;;;;;;;5139314;27;20204;-65
2023/08/18 11:30:04;;;;;;;5.57;5.28;;;;;;;;;;5128402;27;20197;-65
2023/08/18 11:32:31;;;;;;;6.00;5.60;;;;;;;;;;5117018;28;20689;-65
2023/08/18 11:35:00;;;;;;;5.68;5.25;;;;;;;;;;5117882;28;20203;-65
2023/08/18 11:37:28;;;;;;;6.28;5.88;;;;;;;;;;5118539;28;20203;-66
2023/08/18 11:39:55;;;;;;;6.35;5.85;;;;;;;;;;5118248;28;20223;-65
2023/08/18 11:42:24;;;;;;;6.07;5.57;;;;;;;;;;5118814;28;20226;-65
2023/08/18 11:44:54;;;;;;;6.47;5.97;;;;;;;;;;5117784;28;20586;-65
2023/08/18 11:47:23;;;;;;;6.18;5.70;;;;;;;;;;5117685;28;20295;-65
2023/08/18 11:49:52;;;;;;;5.97;5.53;;;;;;;;;;5117438;28;20293;-65
2023/08/18 11:52:19;;;;;;;5.80;5.40;;;;;;;;;;5117857;28;20195;-65
2023/08/18 11:54:46;;;;;;;6.20;5.70;;;;;;;;;;5118237;28;20246;-65
2023/08/18 11:57:14;;;;;;;5.75;5.35;;;;;;;;;;5117073;28;20199;-65
2023/08/18 11:59:46;;;;;;;5.90;5.47;;;;;;;;;;5117923;28;20227;-65
2023/08/18 12:02:21;;;;;;;5.90;5.50;;;;;;;;;;5116484;28;20195;-65
2023/08/18 12:04:51;;;;;;;6.43;5.93;;;;;;;;;;5117524;28;20210;-65
2023/08/18 12:07:19;;;;;;;6.07;5.68;;;;;;;;;;5117181;28;20211;-65
2023/08/18 12:09:46;;;;;;;6.05;5.55;;;;;;;;;;5117640;28;20249;-65
2023/08/18 12:12:17;;;;;;;6.15;5.75;;;;;;;;;;5116931;28;20202;-66
2023/08/18 12:14:44;;;;;;;6.13;5.53;;;;;;;;;;5117639;28;20214;-66
2023/08/18 12:17:13;;;;;;;6.22;5.82;;;;;;;;;;5118313;28;20650;-65
2023/08/18 12:19:40;;;;;;;6.10;5.70;;;;;;;;;;5116374;28;20198;-66
2023/08/18 12:22:07;;;;;;;6.45;6.05;;;;;;;;;;5116755;28;20195;-66
2023/08/18 12:24:36;;;;;;;5.82;5.43;;;;;;;;;;5116543;28;20269;-66
2023/08/18 12:27:04;;;;;;;5.90;5.50;;;;;;;;;;5116910;28;20565;-66
2023/08/18 12:29:31;;;;;;;6.25;5.80;;;;;;;;;;5116403;28;20213;-65
2023/08/18 12:31:58;;;;;;;5.85;5.45;;;;;;;;;;5116811;28;20720;-66
2023/08/18 12:34:27;;;;;;;5.93;5.47;;;;;;;;;;5115790;28;20214;-66
2023/08/18 12:36:56;;;;;;;6.07;5.68;;;;;;;;;;5116047;28;20230;-65
2023/08/18 12:39:24;;;;;;;6.25;5.85;;;;;;;;;;5116081;28;20207;-65
2023/08/18 12:41:51;;;;;;;6.53;6.03;;;;;;;;;;5115543;28;20253;-65
2023/08/18 12:44:18;;;;;;;5.90;5.50;;;;;;;;;;5116619;28;20207;-65
2023/08/18 12:46:46;;;;;;;6.05;5.55;;;;;;;;;;5116420;28;20639;-66
2023/08/18 12:49:13;;;;;;;5.80;5.40;;;;;;;;;;5116369;28;20203;-66
2023/08/18 12:51:42;;;;;;;5.38;5.03;;;;;;;;;;5115164;28;20760;-65
2023/08/18 12:54:09;;;;;;;5.35;5.00;;;;;;;;;;5115966;28;20203;-66
2023/08/18 12:56:37;;;;;;;5.80;5.40;;;;;;;;;;5115061;28;20237;-65
2023/08/18 12:59:04;;;;;;;5.85;5.45;;;;;;;;;;5115879;28;20310;-65
2023/08/18 13:01:34;;;;;;;5.78;5.40;;;;;;;;;;5115788;28;20226;-65
2023/08/18 13:04:02;;;;;;;5.72;5.32;;;;;;;;;;5115860;28;20214;-66
2023/08/18 13:06:29;;;;;;;5.80;5.30;;;;;;;;;;5115926;28;20195;-66
2023/08/18 13:08:58;;;;;;;6.03;5.55;;;;;;;;;;5115886;28;20234;-65
2023/08/18 13:11:25;;;;;;;5.32;4.93;;;;;;;;;;5116153;28;20199;-65
2023/08/18 13:13:52;;;;;;;5.30;5.00;;;;;;;;;;5115715;28;20237;-66
2023/08/18 13:16:20;;;;;;;5.57;5.18;;;;;;;;;;5115896;28;20199;-65
2023/08/18 13:18:47;;;;;;;6.05;5.60;;;;;;;;;;5115532;28;20195;-65
2023/08/18 13:21:14;;;;;;;5.88;5.47;;;;;;;;;;5115746;28;20233;-65
2023/08/18 13:23:42;;;;;;;5.38;5.07;;;;;;;;;;5115589;28;20203;-66
2023/08/18 13:26:10;;;;;;;5.65;5.25;;;;;;;;;;5115096;28;20209;-65
2023/08/18 13:28:38;;;;;;;5.20;4.80;;;;;;;;;;5115751;28;20199;-66
2023/08/18 13:31:08;;;;;;;5.70;5.30;;;;;;;;;;5115811;28;20212;-65
2023/08/18 13:33:36;;;;;;;5.47;5.07;;;;;;;;;;5115219;28;20211;-65
2023/08/18 13:36:03;;;;;;;5.65;5.25;;;;;;;;;;5115182;28;20325;-66
2023/08/18 13:38:30;;;;;;;5.35;5.00;;;;;;;;;;5116012;28;20203;-66
2023/08/18 13:40:58;;;;;;;5.93;5.43;;;;;;;;;;5116173;28;20219;-65
2023/08/18 13:43:26;;;;;;;5.63;5.22;;;;;;;;;;5116374;28;20218;-65
2023/08/18 13:45:57;;;;;;;5.60;5.20;;;;;;;;;;5116225;28;20590;-65
2023/08/18 13:48:25;;;;;;;5.53;5.13;;;;;;;;;;5116326;28;20573;-66
2023/08/18 13:50:53;;;;;;;5.50;5.10;;;;;;;;;;5115183;28;20222;-66
2023/08/18 13:53:21;;;;;;;5.22;4.93;;;;;;;;;;5115169;28;20202;-66
2023/08/18 13:55:48;;;;;;;5.53;5.22;;;;;;;;;;5115131;28;20575;-65
2023/08/18 13:58:15;;;;;;;5.47;5.07;;;;;;;;;;5115578;28;20199;-66
2023/08/18 14:00:44;;;;;;;5.53;5.13;;;;;;;;;;5115517;28;20234;-66
2023/08/18 14:03:11;;;;;;;5.47;5.03;;;;;;;;;;5114928;28;20194;-65
2023/08/18 14:05:43;;;;;;;5.20;4.90;;;;;;;;;;5115139;28;20203;-66
2023/08/18 14:08:10;;;;;;;5.53;5.13;;;;;;;;;;5114197;28;20215;-66
2023/08/18 14:10:38;;;;;;;5.32;5.00;;;;;;;;;;5115238;28;20199;-65
2023/08/18 14:13:05;;;;;;;5.43;5.03;;;;;;;;;;5114664;28;20207;-66
2023/08/18 14:15:33;;;;;;;5.57;5.13;;;;;;;;;;5114584;28;20214;-65
2023/08/18 14:18:02;;;;;;;5.40;5.00;;;;;;;;;;5115791;28;20202;-65
2023/08/18 14:20:30;;;;;;;5.05;4.75;;;;;;;;;;5114849;28;20284;-65
2023/08/18 14:22:57;;;;;;;5.45;5.05;;;;;;;;;;5115564;28;20202;-65
2023/08/18 14:25:24;;;;;;;5.30;4.90;;;;;;;;;;5113951;28;20203;-68
2023/08/18 14:27:52;;;;;;;5.13;4.82;;;;;;;;;;5115409;28;20566;-65
2023/08/18 14:30:21;;;;;;;5.32;4.93;;;;;;;;;;5115510;28;20203;-65
2023/08/18 14:32:48;;;;;;;5.45;5.05;;;;;;;;;;5115308;28;20267;-65
2023/08/18 14:35:17;;;;;;;5.10;4.80;;;;;;;;;;5115276;28;20296;-66
2023/08/18 14:37:44;;;;;;;5.50;5.10;;;;;;;;;;5114937;28;20254;-66
2023/08/18 14:40:12;;;;;;;5.13;4.72;;;;;;;;;;5114422;28;20214;-65
2023/08/18 14:42:40;;;;;;;5.07;4.68;;;;;;;;;;5115431;28;20194;-66
2023/08/18 14:45:08;;;;;;;5.30;4.90;;;;;;;;;;5119132;28;20225;-65
2023/08/18 14:47:36;;;;;;;5.35;5.00;;;;;;;;;;5118952;28;20209;-65
2023/08/18 14:50:05;;;;;;;4.90;4.60;;;;;;;;;;5118676;28;20229;-66